createdAt,value
2019-04-03T00:00:32.810Z,98079.11
2019-04-03T00:02:59.824Z,98085.23
2019-04-03T00:05:26.101Z,98079.50
2019-04-03T00:07:52.380Z,98076.50
2019-04-03T00:10:18.961Z,98081.95
2019-04-03T00:12:45.207Z,98073.22
2019-04-03T00:15:13.740Z,98079.33
2019-04-03T00:17:40.246Z,98074.13
2019-04-03T00:20:06.378Z,98064.77
2019-04-03T00:22:32.722Z,98058.31
2019-04-03T00:24:59.352Z,98053.98
2019-04-03T00:27:25.494Z,98048.05
2019-04-03T00:29:52.171Z,98049.20
2019-04-03T00:32:19.315Z,98042.63
2019-04-03T00:34:45.558Z,98040.89
2019-04-03T00:37:11.843Z,98032.27
2019-04-03T00:39:38.321Z,98025.45
2019-04-03T00:42:04.509Z,98026.61
2019-04-03T00:44:30.739Z,98019.14
2019-04-03T00:46:57.394Z,98023.86
2019-04-03T00:49:24.429Z,98021.20
2019-04-03T00:51:51.587Z,98006.77
2019-04-03T00:54:17.965Z,97999.19
2019-04-03T00:56:44.270Z,97998.73
2019-04-03T00:59:10.462Z,97998.14
2019-04-03T01:01:36.982Z,98001.84
2019-04-03T01:04:03.500Z,97994.27
2019-04-03T01:06:29.739Z,97995.06
2019-04-03T01:08:55.903Z,97988.87
2019-04-03T01:11:23.786Z,97986.26
2019-04-03T01:13:50.026Z,97974.61
2019-04-03T01:16:17.152Z,97981.23
2019-04-03T01:18:43.531Z,97985.83
2019-04-03T01:21:09.985Z,97977.07
2019-04-03T01:23:38.002Z,97971.66
2019-04-03T01:26:04.432Z,97967.88
2019-04-03T01:28:31.201Z,97967.50
2019-04-03T01:30:57.846Z,97966.90
2019-04-03T01:33:24.173Z,97974.28
2019-04-03T01:35:50.635Z,97974.69
2019-04-03T01:38:17.808Z,97979.25
2019-04-03T01:40:45.319Z,97979.15
2019-04-03T01:43:11.557Z,97971.30
2019-04-03T01:45:38.142Z,97970.53
2019-04-03T01:48:04.430Z,97960.52
2019-04-03T01:50:30.657Z,97963.83
2019-04-03T01:52:57.337Z,97963.48
2019-04-03T01:55:23.472Z,97963.75
2019-04-03T01:57:49.629Z,97964.64
2019-04-03T02:00:16.274Z,97960.63
2019-04-03T02:02:44.597Z,97960.78
2019-04-03T02:05:13.327Z,97963.70
2019-04-03T02:07:41.089Z,97947.64
2019-04-03T02:10:19.177Z,97954.25
2019-04-03T02:12:45.902Z,97955.03
2019-04-03T02:15:12.264Z,97955.93
2019-04-03T02:17:38.426Z,97948.59
2019-04-03T02:20:05.096Z,97947.88
2019-04-03T02:22:31.464Z,97946.83
2019-04-03T02:24:57.748Z,97943.68
2019-04-03T02:27:24.224Z,97944.71
2019-04-03T02:29:50.723Z,97938.89
2019-04-03T02:32:16.848Z,97935.99
2019-04-03T02:34:43.113Z,97932.44
2019-04-03T02:37:09.286Z,97935.73
2019-04-03T02:39:35.811Z,97916.76
2019-04-03T02:42:02.245Z,97926.25
2019-04-03T02:44:28.475Z,97923.22
2019-04-03T02:46:55.424Z,97914.75
2019-04-03T02:49:23.248Z,97915.78
2019-04-03T02:51:53.015Z,97911.35
2019-04-03T02:54:26.844Z,97906.92
2019-04-03T02:56:53.688Z,97901.09
2019-04-03T02:59:19.924Z,97902.89
2019-04-03T03:01:46.634Z,97904.66
2019-04-03T03:04:12.815Z,97893.92
2019-04-03T03:06:39.251Z,97898.47
2019-04-03T03:09:05.621Z,97901.01
2019-04-03T03:11:31.889Z,97898.00
2019-04-03T03:13:58.959Z,97899.14
2019-04-03T03:16:26.042Z,97892.80
2019-04-03T03:18:52.674Z,97903.42
2019-04-03T03:21:19.355Z,97886.47
2019-04-03T03:23:46.077Z,97882.44
2019-04-03T03:26:12.428Z,97890.90
2019-04-03T03:28:38.863Z,97868.00
2019-04-03T03:31:07.498Z,97883.31
2019-04-03T03:33:37.375Z,97877.86
2019-04-03T03:36:04.725Z,97868.11
2019-04-03T03:38:31.586Z,97695.84
2019-04-03T03:40:58.100Z,97874.70
2019-04-03T03:43:24.577Z,97868.10
2019-04-03T03:45:53.988Z,97872.39
2019-04-03T03:48:20.768Z,97867.73
2019-04-03T03:50:50.525Z,97865.67
2019-04-03T03:53:17.234Z,97855.82
2019-04-03T03:55:43.685Z,97860.00
2019-04-03T03:58:12.449Z,97860.00
2019-04-03T04:00:39.809Z,97854.18
2019-04-03T04:03:08.626Z,97862.53
2019-04-03T04:05:34.396Z,97861.77
2019-04-03T04:08:01.117Z,97858.98
2019-04-03T04:10:27.909Z,97855.82
2019-04-03T04:12:54.629Z,97860.00
2019-04-03T04:15:22.318Z,97861.25
2019-04-03T04:17:51.133Z,97855.82
2019-04-03T04:20:17.044Z,97825.73
2019-04-03T04:22:44.034Z,97854.54
2019-04-03T04:25:10.476Z,97848.34
2019-04-03T04:27:39.102Z,97849.73
2019-04-03T04:30:06.299Z,97853.29
2019-04-03T04:32:32.576Z,97853.15
2019-04-03T04:34:59.126Z,97848.23
2019-04-03T04:37:26.454Z,97853.03
2019-04-03T04:39:53.268Z,97866.19
2019-04-03T04:42:19.553Z,97859.86
2019-04-03T04:44:45.802Z,97862.53
2019-04-03T04:47:14.546Z,97865.42
2019-04-03T04:49:40.056Z,97863.30
2019-04-03T04:52:06.747Z,97865.20
2019-04-03T04:54:33.311Z,97864.69
2019-04-03T04:56:59.832Z,97866.08
2019-04-03T04:59:26.500Z,97875.17
2019-04-03T05:01:52.722Z,97685.87
2019-04-03T05:04:19.504Z,97868.87
2019-04-03T05:06:45.924Z,97874.81
2019-04-03T05:09:12.233Z,97880.78
2019-04-03T05:11:39.126Z,97878.51
2019-04-03T05:14:06.137Z,97889.51
2019-04-03T05:16:32.402Z,97884.45
2019-04-03T05:19:09.004Z,97890.42
2019-04-03T05:21:27.152Z,97890.28
2019-04-03T05:23:55.766Z,97883.98
2019-04-03T05:26:21.897Z,97890.69
2019-04-03T05:28:57.088Z,97896.87
2019-04-03T05:31:18.832Z,97897.39
2019-04-03T05:33:45.105Z,97893.73
2019-04-03T05:36:11.714Z,97889.92
2019-04-03T05:38:38.549Z,97895.38
2019-04-03T05:41:06.260Z,97898.05
2019-04-03T05:43:32.797Z,97902.59
2019-04-03T05:45:59.029Z,97730.10
2019-04-03T05:48:25.209Z,97902.73
2019-04-03T05:50:51.466Z,97901.86
2019-04-03T05:53:17.830Z,97697.52
2019-04-03T05:55:44.173Z,97900.58
2019-04-03T05:58:10.653Z,97903.73
2019-04-03T06:00:38.173Z,97904.50
2019-04-03T06:03:05.054Z,97900.18
2019-04-03T06:05:31.392Z,97903.58
2019-04-03T06:07:57.626Z,97901.19
2019-04-03T06:10:23.765Z,97903.94
2019-04-03T06:12:50.517Z,97899.13
2019-04-03T06:15:16.640Z,97898.98
2019-04-03T06:17:43.036Z,97895.27
2019-04-03T06:20:11.240Z,97913.72
2019-04-03T06:22:37.757Z,97892.41
2019-04-03T06:25:05.698Z,97891.98
2019-04-03T06:27:32.446Z,97904.64
2019-04-03T06:29:58.606Z,97705.48
2019-04-03T06:32:25.075Z,97899.28
2019-04-03T06:34:52.118Z,97903.55
2019-04-03T06:37:18.281Z,97898.58
2019-04-03T06:39:45.720Z,97901.97
2019-04-03T06:42:13.268Z,97904.32
2019-04-03T06:44:40.032Z,97915.55
2019-04-03T06:47:06.299Z,97903.85
2019-04-03T06:49:32.970Z,97897.48
2019-04-03T06:51:59.314Z,97896.16
2019-04-03T06:54:25.454Z,97896.62
2019-04-03T06:56:52.955Z,97895.19
2019-04-03T06:59:19.496Z,97889.78
2019-04-03T07:01:45.715Z,97893.30
2019-04-03T07:04:12.425Z,97890.69
2019-04-03T07:06:38.616Z,97714.30
2019-04-03T07:09:06.282Z,97884.06
2019-04-03T07:11:32.761Z,97884.72
2019-04-03T07:13:59.175Z,97888.55
2019-04-03T07:16:28.123Z,97891.11
2019-04-03T07:18:53.824Z,97894.42
2019-04-03T07:21:20.678Z,97896.55
2019-04-03T07:23:48.091Z,97898.71
2019-04-03T07:26:15.193Z,97894.00
2019-04-03T07:28:42.345Z,97723.97
2019-04-03T07:31:08.686Z,97911.90
2019-04-03T07:33:35.015Z,97909.11
2019-04-03T07:36:01.567Z,97907.50
2019-04-03T07:38:27.966Z,97915.38
2019-04-03T07:40:54.520Z,97895.58
2019-04-03T07:43:20.815Z,97917.19
2019-04-03T07:45:47.169Z,97917.69
2019-04-03T07:48:13.337Z,97917.47
2019-04-03T07:50:41.637Z,97920.13
2019-04-03T07:53:07.828Z,97917.75
2019-04-03T07:55:34.615Z,97920.19
2019-04-03T07:58:01.570Z,97929.81
2019-04-03T08:00:28.478Z,97933.48
2019-04-03T08:02:55.262Z,97938.50
2019-04-03T08:05:21.455Z,97919.81
2019-04-03T08:07:47.898Z,97927.03
2019-04-03T08:10:14.405Z,97917.48
2019-04-03T08:12:40.961Z,97926.86
2019-04-03T08:15:07.408Z,97923.13
2019-04-03T08:17:33.692Z,97925.42
2019-04-03T08:20:00.096Z,97924.25
2019-04-03T08:22:26.759Z,97926.65
2019-04-03T08:24:53.863Z,97918.73
2019-04-03T08:27:22.813Z,97918.45
2019-04-03T08:29:48.861Z,97916.53
2019-04-03T08:32:16.181Z,97919.17
2019-04-03T08:34:43.403Z,97922.55
2019-04-03T08:37:10.750Z,97913.89
2019-04-03T08:39:37.344Z,97926.03
2019-04-03T08:42:04.017Z,97917.13
2019-04-03T08:44:30.298Z,97913.58
2019-04-03T08:46:56.659Z,97730.71
2019-04-03T08:49:25.780Z,97917.90
2019-04-03T08:51:51.884Z,97917.81
2019-04-03T08:54:18.294Z,97918.91
2019-04-03T08:56:44.839Z,97917.36
2019-04-03T08:59:12.917Z,97912.98
2019-04-03T09:01:39.447Z,97919.97
2019-04-03T09:04:05.697Z,97730.15
2019-04-03T09:06:32.086Z,97883.51
2019-04-03T09:08:58.721Z,97923.39
2019-04-03T09:11:25.814Z,97864.66
2019-04-03T09:13:54.384Z,97908.56
2019-04-03T09:16:20.268Z,97911.16
2019-04-03T09:18:46.740Z,97910.35
2019-04-03T09:21:15.156Z,97906.00
2019-04-03T09:23:41.122Z,97904.08
2019-04-03T09:26:07.780Z,97906.93
2019-04-03T09:28:34.245Z,97901.39
2019-04-03T09:31:00.560Z,97897.58
2019-04-03T09:33:29.385Z,97883.78
2019-04-03T09:35:58.395Z,97874.91
2019-04-03T09:38:23.287Z,97886.94
2019-04-03T09:40:49.854Z,97887.64
2019-04-03T09:43:16.021Z,97879.45
2019-04-03T09:45:42.816Z,97625.32
2019-04-03T09:48:11.660Z,97867.27
2019-04-03T09:50:37.438Z,97865.94
2019-04-03T09:53:03.651Z,97865.80
2019-04-03T09:55:35.461Z,97863.89
2019-04-03T09:57:58.726Z,97855.84
2019-04-03T10:00:25.388Z,97861.68
2019-04-03T10:02:52.023Z,97856.59
2019-04-03T10:05:18.362Z,97858.84
2019-04-03T10:07:44.905Z,97848.40
2019-04-03T10:10:11.785Z,97850.88
2019-04-03T10:12:38.062Z,97841.62
2019-04-03T10:15:08.039Z,97840.62
2019-04-03T10:17:36.639Z,97842.04
2019-04-03T10:20:06.383Z,97839.26
2019-04-03T10:22:32.928Z,97838.03
2019-04-03T10:25:00.542Z,97841.92
2019-04-03T10:27:27.025Z,97831.80
2019-04-03T10:29:55.697Z,97830.95
2019-04-03T10:32:25.054Z,97826.75
2019-04-03T10:34:51.376Z,97827.48
2019-04-03T10:37:17.930Z,97829.77
2019-04-03T10:39:44.922Z,97829.32
2019-04-03T10:42:11.433Z,97824.89
2019-04-03T10:44:37.776Z,97813.69
2019-04-03T10:47:04.161Z,97813.35
2019-04-03T10:49:32.473Z,97812.58
2019-04-03T10:51:58.866Z,97809.34
2019-04-03T10:54:25.794Z,97803.30
2019-04-03T10:56:52.112Z,97802.86
2019-04-03T10:59:19.113Z,97794.17
2019-04-03T11:01:45.644Z,97799.34
2019-04-03T11:04:12.144Z,97603.75
2019-04-03T11:06:38.885Z,97785.53
2019-04-03T11:09:07.032Z,97789.44
2019-04-03T11:11:33.394Z,97788.36
2019-04-03T11:14:02.270Z,97798.91
2019-04-03T11:16:28.031Z,97789.53
2019-04-03T11:18:59.946Z,97790.72
2019-04-03T11:21:22.787Z,97788.46
2019-04-03T11:23:49.224Z,97787.62
2019-04-03T11:26:17.660Z,97786.45
2019-04-03T11:28:44.212Z,97792.45
2019-04-03T11:31:10.729Z,97772.84
2019-04-03T11:33:37.080Z,97778.02
2019-04-03T11:36:03.706Z,97760.03
2019-04-03T11:38:30.028Z,97765.19
2019-04-03T11:40:56.534Z,97771.02
2019-04-03T11:43:23.156Z,97778.33
2019-04-03T11:45:49.799Z,97769.38
2019-04-03T11:48:17.247Z,97770.58
2019-04-03T11:50:44.362Z,97771.54
2019-04-03T11:53:10.644Z,97775.63
2019-04-03T11:55:36.829Z,97773.38
2019-04-03T11:58:03.578Z,97767.06
2019-04-03T12:00:32.045Z,97761.13
2019-04-03T12:02:58.761Z,97766.63
2019-04-03T12:05:25.130Z,97745.84
2019-04-03T12:07:51.326Z,97753.06
2019-04-03T12:10:17.976Z,97750.27
2019-04-03T12:12:44.803Z,97713.66
2019-04-03T12:15:15.056Z,97747.31
2019-04-03T12:17:40.166Z,97755.28
2019-04-03T12:20:09.183Z,97746.63
2019-04-03T12:22:35.669Z,97747.28
2019-04-03T12:25:02.802Z,97750.40
2019-04-03T12:27:29.525Z,97744.80
2019-04-03T12:29:56.156Z,97737.98
2019-04-03T12:32:36.107Z,97730.58
2019-04-03T12:34:51.996Z,97727.45
2019-04-03T12:37:19.556Z,97718.06
2019-04-03T12:39:46.871Z,97718.59
2019-04-03T12:42:13.142Z,97715.77
2019-04-03T12:44:39.903Z,97724.27
2019-04-03T12:47:12.196Z,97722.84
2019-04-03T12:49:34.707Z,97721.23
2019-04-03T12:52:03.634Z,97714.07
2019-04-03T12:54:29.375Z,97710.56
2019-04-03T12:57:00.263Z,97705.36
2019-04-03T12:59:26.101Z,97703.09
2019-04-03T13:01:52.885Z,97692.52
2019-04-03T13:04:19.028Z,97689.38
2019-04-03T13:06:45.747Z,97689.47
2019-04-03T13:09:12.199Z,97691.45
2019-04-03T13:11:46.435Z,97695.09
2019-04-03T13:14:22.631Z,97681.40
2019-04-03T13:16:41.846Z,97685.15
2019-04-03T13:19:08.339Z,97678.84
2019-04-03T13:21:34.991Z,97678.38
2019-04-03T13:24:02.062Z,97672.06
2019-04-03T13:26:28.400Z,97673.05
2019-04-03T13:28:54.700Z,97664.62
2019-04-03T13:31:21.046Z,97664.39
2019-04-03T13:33:47.237Z,97664.33
2019-04-03T13:36:13.718Z,97655.49
2019-04-03T13:38:40.214Z,97664.70
2019-04-03T13:41:08.011Z,97665.26
2019-04-03T13:43:34.743Z,97645.74
2019-04-03T13:46:03.916Z,97657.39
2019-04-03T13:48:29.724Z,97652.67
2019-04-03T13:50:56.222Z,97653.62
2019-04-03T13:53:25.401Z,97653.72
2019-04-03T13:55:51.173Z,97646.60
2019-04-03T13:58:20.554Z,97633.19
2019-04-03T14:00:57.642Z,97625.86
2019-04-03T14:03:17.619Z,97624.56
2019-04-03T14:05:43.440Z,97615.66
2019-04-03T14:08:12.237Z,97606.81
2019-04-03T14:10:38.739Z,97614.98
2019-04-03T14:13:04.981Z,97608.21
2019-04-03T14:15:31.259Z,97610.23
2019-04-03T14:17:59.127Z,97608.63
2019-04-03T14:20:27.963Z,97609.69
2019-04-03T14:22:54.357Z,97603.98
2019-04-03T14:25:23.774Z,97593.19
2019-04-03T14:27:50.046Z,97599.00
2019-04-03T14:30:21.587Z,97591.13
2019-04-03T14:32:52.840Z,97592.27
2019-04-03T14:37:49.845Z,97582.70
2019-04-03T14:40:21.092Z,97578.69
2019-04-03T14:42:48.105Z,97573.71
2019-04-03T14:45:16.946Z,97562.36
2019-04-03T14:47:43.650Z,97395.41
2019-04-03T14:50:10.289Z,97552.44
2019-04-03T14:52:36.657Z,97557.14
2019-04-03T14:55:17.135Z,97544.49
2019-04-03T14:57:33.446Z,97372.25
2019-04-03T15:00:02.046Z,97541.31
2019-04-03T15:02:29.032Z,97524.26
2019-04-03T15:04:55.448Z,97527.44
2019-04-03T15:07:22.034Z,97523.50
2019-04-03T15:09:48.518Z,97518.89
2019-04-03T15:12:14.737Z,97518.25
2019-04-03T15:14:41.411Z,97519.73
2019-04-03T15:17:07.550Z,97514.59
2019-04-03T15:19:33.845Z,97510.20
2019-04-03T15:22:02.112Z,97516.95
2019-04-03T15:24:29.057Z,97506.19
2019-04-03T15:26:55.309Z,97502.64
2019-04-03T15:29:21.624Z,97506.95
2019-04-03T15:31:48.097Z,97504.16
2019-04-03T15:34:14.380Z,97498.54
2019-04-03T15:36:40.661Z,97490.48
2019-04-03T15:39:09.325Z,97483.44
2019-04-03T15:41:35.799Z,97475.38
2019-04-03T15:44:02.711Z,97475.58
2019-04-03T15:46:30.020Z,97478.55
2019-04-03T15:48:56.369Z,97474.64
2019-04-03T15:51:23.114Z,97468.27
2019-04-03T15:53:49.530Z,97463.77
2019-04-03T15:56:15.838Z,97463.49
2019-04-03T15:58:42.299Z,97453.47
2019-04-03T16:01:09.279Z,97461.98
2019-04-03T16:03:35.549Z,97454.30
2019-04-03T16:06:03.487Z,97458.80
2019-04-03T16:08:30.360Z,97458.25
2019-04-03T16:10:58.374Z,97458.31
2019-04-03T16:13:25.031Z,97448.10
2019-04-03T16:15:54.786Z,97452.31
2019-04-03T16:18:20.652Z,97447.15
2019-04-03T16:20:49.042Z,97451.81
2019-04-03T16:23:18.287Z,97446.36
2019-04-03T16:25:45.011Z,97445.72
2019-04-03T16:28:13.003Z,97442.06
2019-04-03T16:30:40.426Z,97429.23
2019-04-03T16:33:18.978Z,97261.45
2019-04-03T16:35:35.937Z,97432.97
2019-04-03T16:38:02.360Z,97436.39
2019-04-03T16:40:31.223Z,97424.39
2019-04-03T16:42:57.667Z,97420.53
2019-04-03T16:45:24.273Z,97413.28
2019-04-03T16:47:50.604Z,97414.06
2019-04-03T16:50:17.636Z,97411.31
2019-04-03T16:52:46.789Z,97410.53
2019-04-03T16:55:13.825Z,97412.44
2019-04-03T16:57:40.972Z,97418.66
2019-04-03T17:00:09.907Z,97411.07
2019-04-03T17:02:38.244Z,97404.77
2019-04-03T17:05:05.290Z,97395.66
2019-04-03T17:07:31.459Z,97389.03
2019-04-03T17:09:57.981Z,97396.64
2019-04-03T17:12:24.159Z,97400.77
2019-04-03T17:14:50.918Z,97389.44
2019-04-03T17:17:17.364Z,97392.26
2019-04-03T17:19:43.587Z,97386.41
2019-04-03T17:22:09.871Z,97388.41
2019-04-03T17:24:42.795Z,97388.78
2019-04-03T17:27:04.607Z,97388.82
2019-04-03T17:29:30.794Z,97388.01
2019-04-03T17:31:58.655Z,97381.14
2019-04-03T17:34:25.072Z,97194.65
2019-04-03T17:36:52.629Z,97372.81
2019-04-03T17:39:20.035Z,97370.80
2019-04-03T17:41:46.245Z,97362.94
2019-04-03T17:44:13.967Z,97351.14
2019-04-03T17:46:40.859Z,97344.08
2019-04-03T17:49:07.029Z,97344.84
2019-04-03T17:51:33.568Z,97334.98
2019-04-03T17:54:00.767Z,97343.73
2019-04-03T17:56:26.931Z,97331.72
2019-04-03T17:58:53.305Z,97337.97
2019-04-03T18:01:22.168Z,97328.63
2019-04-03T18:03:49.684Z,97320.80
2019-04-03T18:06:18.488Z,97319.42
2019-04-03T18:08:44.907Z,97311.06
2019-04-03T18:11:13.133Z,97116.87
2019-04-03T18:13:39.267Z,97313.88
2019-04-03T18:16:05.929Z,97316.77
2019-04-03T18:18:33.383Z,97306.38
2019-04-03T18:21:00.232Z,97304.54
2019-04-03T18:23:26.719Z,97317.97
2019-04-03T18:25:52.864Z,97317.97
2019-04-03T18:28:21.005Z,97303.55
2019-04-03T18:30:47.730Z,97304.30
2019-04-03T18:33:16.582Z,97302.28
2019-04-03T18:35:42.125Z,97295.62
2019-04-03T18:38:08.670Z,97291.21
2019-04-03T18:40:35.063Z,97277.58
2019-04-03T18:43:01.297Z,97282.62
2019-04-03T18:45:27.685Z,97283.70
2019-04-03T18:47:55.979Z,97291.75
2019-04-03T18:50:22.671Z,97286.70
2019-04-03T18:52:48.935Z,97294.00
2019-04-03T18:55:15.248Z,97303.64
2019-04-03T18:57:41.399Z,97301.61
2019-04-03T19:00:08.097Z,97298.59
2019-04-03T19:02:35.122Z,97300.42
2019-04-03T19:05:02.663Z,97297.41
2019-04-03T19:07:28.908Z,97299.34
2019-04-03T19:10:06.457Z,97287.20
2019-04-03T19:12:34.914Z,97288.28
2019-04-03T19:14:51.704Z,97293.53
2019-04-03T19:17:17.886Z,97304.59
2019-04-03T19:19:44.391Z,97301.80
2019-04-03T19:22:10.805Z,97302.44
2019-04-03T19:24:37.078Z,97296.33
2019-04-03T19:27:03.577Z,97301.37
2019-04-03T19:29:29.752Z,97298.70
2019-04-03T19:31:56.041Z,97285.39
2019-04-03T19:34:22.545Z,97284.62
2019-04-03T19:36:48.929Z,97273.60
2019-04-03T19:39:15.112Z,97277.12
2019-04-03T19:41:42.717Z,97271.67
2019-04-03T19:44:09.509Z,97264.03
2019-04-03T19:46:35.774Z,97250.84
2019-04-03T19:49:02.417Z,97248.69
2019-04-03T19:51:28.574Z,97261.78
2019-04-03T19:53:59.522Z,97235.19
2019-04-03T19:56:25.759Z,97237.22
2019-04-03T19:58:51.283Z,97234.42
2019-04-03T20:01:17.557Z,97234.96
2019-04-03T20:03:44.307Z,97242.70
2019-04-03T20:06:11.294Z,97243.33
2019-04-03T20:08:37.425Z,97254.48
2019-04-03T20:11:05.132Z,97256.52
2019-04-03T20:13:31.957Z,97303.20
2019-04-03T20:15:58.134Z,97349.09
2019-04-03T20:18:25.999Z,97352.55
2019-04-03T20:20:52.541Z,97400.06
2019-04-03T20:23:18.817Z,97413.48
2019-04-03T20:25:46.016Z,97363.37
2019-04-03T20:28:13.139Z,97370.14
2019-04-03T20:30:39.770Z,97361.88
2019-04-03T20:33:06.091Z,97367.66
2019-04-03T20:35:34.234Z,97381.45
2019-04-03T20:38:00.568Z,97365.75
2019-04-03T20:40:26.859Z,97372.48
2019-04-03T20:42:53.065Z,97371.75
2019-04-03T20:45:19.756Z,97376.69
2019-04-03T20:47:48.238Z,97370.19
2019-04-03T20:50:16.155Z,97381.41
2019-04-03T20:52:45.794Z,97412.05
2019-04-03T20:55:11.107Z,97415.52
2019-04-03T20:57:37.263Z,97419.94
2019-04-03T21:00:09.913Z,97434.98
2019-04-03T21:02:36.100Z,97451.54
2019-04-03T21:05:03.884Z,97439.84
2019-04-03T21:07:30.357Z,97422.05
2019-04-03T21:09:56.613Z,97422.84
2019-04-03T21:12:22.798Z,97422.09
2019-04-03T21:14:49.457Z,97407.52
2019-04-03T21:17:18.598Z,97414.18
2019-04-03T21:19:43.854Z,97424.53
2019-04-03T21:22:10.573Z,97415.64
2019-04-03T21:24:36.776Z,97432.20
2019-04-03T21:27:03.353Z,97427.58
2019-04-03T21:29:29.624Z,97426.05
2019-04-03T21:31:56.747Z,97425.22
2019-04-03T21:34:23.807Z,97441.23
2019-04-03T21:36:50.475Z,97441.75
2019-04-03T21:39:16.918Z,97448.31
2019-04-03T21:41:43.571Z,97447.31
2019-04-03T21:44:09.922Z,97443.81
2019-04-03T21:46:36.265Z,97439.66
2019-04-03T21:49:04.308Z,97446.20
2019-04-03T21:51:30.765Z,97455.66
2019-04-03T21:53:56.987Z,97458.54
2019-04-03T21:56:23.142Z,97459.42
2019-04-03T21:58:49.578Z,97467.99
2019-04-03T22:01:20.149Z,97470.26
2019-04-03T22:03:46.435Z,97475.43
2019-04-03T22:06:13.792Z,97477.44
2019-04-03T22:08:40.090Z,97478.59
2019-04-03T22:11:06.596Z,97493.21
2019-04-03T22:13:33.015Z,97273.30
2019-04-03T22:15:59.307Z,97487.53
2019-04-03T22:18:25.452Z,97486.37
2019-04-03T22:20:52.020Z,97480.94
2019-04-03T22:23:18.341Z,97483.28
2019-04-03T22:25:44.628Z,97487.30
2019-04-03T22:28:13.212Z,97493.09
2019-04-03T22:30:39.984Z,97475.56
2019-04-03T22:33:06.244Z,97471.77
2019-04-03T22:35:32.934Z,97472.36
2019-04-03T22:37:59.477Z,97478.52
2019-04-03T22:40:25.720Z,97482.14
2019-04-03T22:42:52.697Z,97487.80
2019-04-03T22:45:20.112Z,97485.91
2019-04-03T22:47:47.688Z,97484.61
2019-04-03T22:50:14.327Z,97497.45
2019-04-03T22:52:40.586Z,97501.33
2019-04-03T22:55:06.865Z,97499.56
2019-04-03T22:57:33.477Z,97492.11
2019-04-03T22:59:59.931Z,97493.61
2019-04-03T23:02:26.320Z,97484.92
2019-04-03T23:04:52.713Z,97485.03
2019-04-03T23:07:20.873Z,97483.88
2019-04-03T23:09:46.939Z,97495.91
2019-04-03T23:12:13.739Z,97479.30
2019-04-03T23:14:40.078Z,97431.33
2019-04-03T23:17:06.404Z,97478.72
2019-04-03T23:19:32.663Z,97478.21
2019-04-03T23:21:59.011Z,97470.02
2019-04-03T23:24:28.532Z,97482.54
2019-04-03T23:26:53.584Z,97478.00
2019-04-03T23:29:19.884Z,97467.94
2019-04-03T23:31:46.544Z,97429.11
2019-04-03T23:34:12.844Z,97473.40
2019-04-03T23:36:39.129Z,97470.36
2019-04-03T23:39:06.912Z,97465.83
2019-04-03T23:41:36.357Z,97466.94
2019-04-03T23:44:01.763Z,97467.77
2019-04-03T23:46:28.347Z,97475.79
2019-04-03T23:48:54.594Z,97480.43
2019-04-03T23:51:23.537Z,97474.66
2019-04-03T23:53:49.599Z,97469.48
2019-04-03T23:56:15.983Z,97474.88
2019-04-03T23:58:42.441Z,97473.99
